Langtry, Texas
Current Conditions -  °F | °C
As of 4:53 PM on Saturday 25 Oct 2014 (Local Time) from KDRT Reporting Station
Clear Clear  
Wind Chill: 87°   Ceiling: Unl
Heat Index: 87°   Visibility: 10mi
Dew Point: 58°   Wind: 10mph
Humidity: 37%   Direction: 130°SE
Pressure: 30.06"   Gusts: NA
Location:  29.81°N, 101.56°W
Report Text: KDRT 252153Z AUTO 13009KT 10SM CLR 31/14 A3006 RMK AO2 SLP163 T03060144
Loading
Personal Weather Stations






























Interactive Weather Map
Tropical Storm Tracking
New forecast layout! Learn more

10-Day Weather Forecast

Advertisements
Track Severe Weather on mobile